createdAt,value
2024-04-09T00:00:36.422Z,28.47
2024-04-09T00:01:36.404Z,28.49
2024-04-09T00:02:36.544Z,28.42
2024-04-09T00:03:36.721Z,28.48
2024-04-09T00:04:36.932Z,28.40
2024-04-09T00:05:36.795Z,28.39
2024-04-09T00:06:37.006Z,28.45
2024-04-09T00:07:36.992Z,28.49
2024-04-09T00:08:37.086Z,28.51
2024-04-09T00:09:37.254Z,28.47
2024-04-09T00:10:37.362Z,28.52
2024-04-09T00:11:37.532Z,28.57
2024-04-09T00:12:37.599Z,28.30
2024-04-09T00:13:37.576Z,28.31
2024-04-09T00:14:37.679Z,28.34
2024-04-09T00:15:38.045Z,28.22
2024-04-09T00:16:37.891Z,28.22
2024-04-09T00:17:38.131Z,28.22
2024-04-09T00:18:38.195Z,28.28
2024-04-09T00:19:38.216Z,28.20
2024-04-09T00:20:38.273Z,28.17
2024-04-09T00:21:38.579Z,28.18
2024-04-09T00:22:38.549Z,28.20
2024-04-09T00:23:38.628Z,28.23
2024-04-09T00:24:38.824Z,28.24
2024-04-09T00:25:38.856Z,28.09
2024-04-09T00:26:38.939Z,28.13
2024-04-09T00:27:40.829Z,28.17
2024-04-09T00:28:39.046Z,28.14
2024-04-09T00:29:39.060Z,27.99
2024-04-09T00:30:39.106Z,28.08
2024-04-09T00:31:39.048Z,28.07
2024-04-09T00:32:39.181Z,28.10
2024-04-09T00:33:39.197Z,28.00
2024-04-09T00:34:39.177Z,28.00
2024-04-09T00:35:39.057Z,27.97
2024-04-09T00:36:39.099Z,27.96
2024-04-09T00:37:39.091Z,27.99
2024-04-09T00:38:39.060Z,27.86
2024-04-09T00:39:39.187Z,27.96
2024-04-09T00:40:39.083Z,28.04
2024-04-09T00:41:39.084Z,28.03
2024-04-09T00:42:39.107Z,28.06
2024-04-09T00:43:39.072Z,28.08
2024-04-09T00:44:39.081Z,28.15
2024-04-09T00:45:39.312Z,28.00
2024-04-09T00:46:39.094Z,27.95
2024-04-09T00:47:39.218Z,27.89
2024-04-09T00:48:39.526Z,27.85
2024-04-09T00:49:39.087Z,27.73
2024-04-09T00:50:39.091Z,27.79
2024-04-09T00:51:39.128Z,27.86
2024-04-09T00:52:39.114Z,27.78
2024-04-09T00:53:39.115Z,27.76
2024-04-09T00:54:39.143Z,27.71
2024-04-09T00:55:39.081Z,27.72
2024-04-09T00:56:39.156Z,27.46
2024-04-09T00:57:39.246Z,27.50
2024-04-09T00:58:39.346Z,27.58
2024-04-09T00:59:39.468Z,27.69
2024-04-09T01:00:39.678Z,27.58
2024-04-09T01:01:39.684Z,27.65
2024-04-09T01:02:39.797Z,27.71
2024-04-09T01:03:40.102Z,27.70
2024-04-09T01:04:40.160Z,27.58
2024-04-09T01:05:40.062Z,27.73
2024-04-09T01:06:40.209Z,27.69
2024-04-09T01:07:41.045Z,27.55
2024-04-09T01:08:40.382Z,27.56
2024-04-09T01:09:40.573Z,27.49
2024-04-09T01:10:40.569Z,27.49
2024-04-09T01:11:40.677Z,27.52
2024-04-09T01:12:40.774Z,27.45
2024-04-09T01:13:40.892Z,27.46
2024-04-09T01:14:41.003Z,27.15
2024-04-09T01:15:41.190Z,27.24
2024-04-09T01:16:41.200Z,27.53
2024-04-09T01:17:41.373Z,27.59
2024-04-09T01:18:41.578Z,27.71
2024-04-09T01:19:41.540Z,27.58
2024-04-09T01:20:41.616Z,27.30
2024-04-09T01:21:41.732Z,27.30
2024-04-09T01:22:41.799Z,27.26
2024-04-09T01:23:41.903Z,27.36
2024-04-09T01:24:42.036Z,27.24
2024-04-09T01:25:42.125Z,27.15
2024-04-09T01:26:42.211Z,27.13
2024-04-09T01:27:42.284Z,27.11
2024-04-09T01:28:42.400Z,27.14
2024-04-09T01:29:42.488Z,27.24
2024-04-09T01:30:42.665Z,27.09
2024-04-09T01:31:42.699Z,27.11
2024-04-09T01:32:42.944Z,27.09
2024-04-09T01:33:42.958Z,26.99
2024-04-09T01:34:43.037Z,26.90
2024-04-09T01:35:43.087Z,27.03
2024-04-09T01:36:43.175Z,27.01
2024-04-09T01:37:43.285Z,27.05
2024-04-09T01:38:43.383Z,27.10
2024-04-09T01:39:43.481Z,27.11
2024-04-09T01:40:43.592Z,26.96
2024-04-09T01:41:43.688Z,27.11
2024-04-09T01:42:43.827Z,27.04
2024-04-09T01:43:43.892Z,27.17
2024-04-09T01:44:43.965Z,27.15
2024-04-09T01:45:44.602Z,27.11
2024-04-09T01:46:44.204Z,27.29
2024-04-09T01:47:44.333Z,27.26
2024-04-09T01:48:44.446Z,27.20
2024-04-09T01:49:44.467Z,27.25
2024-04-09T01:50:44.587Z,27.23
2024-04-09T01:51:44.713Z,27.11
2024-04-09T01:52:44.825Z,27.12
2024-04-09T01:54:01.554Z,27.12
2024-04-09T01:55:01.519Z,27.12
2024-04-09T01:56:01.542Z,27.18
2024-04-09T01:57:01.596Z,27.22
2024-04-09T01:58:01.599Z,27.20
2024-04-09T01:59:01.501Z,27.17
2024-04-09T02:00:01.675Z,27.28
2024-04-09T02:01:01.582Z,27.22
2024-04-09T02:02:01.689Z,27.22
2024-04-09T02:03:01.665Z,27.12
2024-04-09T02:04:01.565Z,27.27
2024-04-09T02:05:01.535Z,27.20
2024-04-09T02:06:01.687Z,27.14
2024-04-09T02:07:01.510Z,27.11
2024-04-09T02:08:01.600Z,27.19
2024-04-09T02:09:01.681Z,27.27
2024-04-09T02:10:01.541Z,27.21
2024-04-09T02:11:01.529Z,27.15
2024-04-09T02:12:01.809Z,27.22
2024-04-09T02:13:01.714Z,27.25
2024-04-09T02:14:01.643Z,27.23
2024-04-09T02:15:01.602Z,27.23
2024-04-09T02:16:01.665Z,27.16
2024-04-09T02:17:01.736Z,27.13
2024-04-09T02:18:01.779Z,27.16
2024-04-09T02:19:01.574Z,27.12
2024-04-09T02:20:01.556Z,27.23
2024-04-09T02:21:01.640Z,27.20
2024-04-09T02:22:01.575Z,27.22
2024-04-09T02:23:01.608Z,27.15
2024-04-09T02:24:01.691Z,27.35
2024-04-09T02:25:01.750Z,27.27
2024-04-09T02:26:01.625Z,27.15
2024-04-09T02:27:01.623Z,27.19
2024-04-09T02:28:01.584Z,27.09
2024-04-09T02:29:01.690Z,27.12
2024-04-09T02:30:01.667Z,27.19
2024-04-09T02:31:01.606Z,27.19
2024-04-09T02:32:01.771Z,27.22
2024-04-09T02:33:01.744Z,27.21
2024-04-09T02:34:01.772Z,27.25
2024-04-09T02:35:01.605Z,27.41
2024-04-09T02:36:01.597Z,27.37
2024-04-09T02:37:01.639Z,27.49
2024-04-09T02:38:01.615Z,27.51
2024-04-09T02:39:01.625Z,27.52
2024-04-09T02:40:01.800Z,27.38
2024-04-09T02:41:01.790Z,27.42
2024-04-09T02:42:01.907Z,27.45
2024-04-09T02:43:01.937Z,27.38
2024-04-09T02:44:02.008Z,27.45
2024-04-09T02:45:02.179Z,27.36
2024-04-09T02:46:02.228Z,27.18
2024-04-09T02:47:02.391Z,27.21
2024-04-09T02:48:02.540Z,27.18
2024-04-09T02:49:02.663Z,27.17
2024-04-09T02:50:02.607Z,27.11
2024-04-09T02:51:02.723Z,27.15
2024-04-09T02:52:02.808Z,27.06
2024-04-09T02:53:02.931Z,27.15
2024-04-09T02:54:03.037Z,27.08
2024-04-09T02:55:03.129Z,27.08
2024-04-09T02:56:03.182Z,27.08
2024-04-09T02:57:03.275Z,27.06
2024-04-09T02:58:03.376Z,27.09
2024-04-09T02:59:03.493Z,27.02
2024-04-09T03:00:03.612Z,27.05
2024-04-09T03:01:03.723Z,27.11
2024-04-09T03:02:03.808Z,27.08
2024-04-09T03:03:03.893Z,27.03
2024-04-09T03:04:04.115Z,26.96
2024-04-09T03:05:04.091Z,27.04
2024-04-09T03:06:04.260Z,27.17
2024-04-09T03:07:04.319Z,27.06
2024-04-09T03:08:04.470Z,27.02
2024-04-09T03:09:04.580Z,26.99
2024-04-09T03:10:04.664Z,26.89
2024-04-09T03:11:04.809Z,26.90
2024-04-09T03:12:04.857Z,26.99
2024-04-09T03:13:05.006Z,26.94
2024-04-09T03:14:05.085Z,26.92
2024-04-09T03:15:05.268Z,26.92
2024-04-09T03:16:05.301Z,26.90
2024-04-09T03:17:05.370Z,26.74
2024-04-09T03:18:05.568Z,26.76
2024-04-09T03:19:05.562Z,26.81
2024-04-09T03:20:05.669Z,26.68
2024-04-09T03:21:05.726Z,26.75
2024-04-09T03:22:05.852Z,26.74
2024-04-09T03:23:05.913Z,26.62
2024-04-09T03:24:06.071Z,26.67
2024-04-09T03:25:06.069Z,26.70
2024-04-09T03:26:06.193Z,26.66
2024-04-09T03:27:06.330Z,26.64
2024-04-09T03:28:06.397Z,26.52
2024-04-09T03:29:06.462Z,26.62
2024-04-09T03:30:06.682Z,26.70
2024-04-09T03:31:06.629Z,26.59
2024-04-09T03:32:06.758Z,26.71
2024-04-09T03:33:23.628Z,26.50
2024-04-09T03:34:23.656Z,26.59
2024-04-09T03:35:23.412Z,26.45
2024-04-09T03:36:23.442Z,26.39
2024-04-09T03:37:23.426Z,26.44
2024-04-09T03:38:23.428Z,26.33
2024-04-09T03:39:23.469Z,26.33
2024-04-09T03:40:23.420Z,26.37
2024-04-09T03:41:23.439Z,26.39
2024-04-09T03:42:23.437Z,26.40
2024-04-09T03:43:23.432Z,26.31
2024-04-09T03:44:23.421Z,26.38
2024-04-09T03:45:23.450Z,26.58
2024-04-09T03:46:23.453Z,26.48
2024-04-09T03:47:23.495Z,26.38
2024-04-09T03:48:23.618Z,26.42
2024-04-09T03:49:23.620Z,26.30
2024-04-09T03:50:23.483Z,26.38
2024-04-09T03:51:23.594Z,26.29
2024-04-09T03:52:23.512Z,26.23
2024-04-09T03:53:23.500Z,26.21
2024-04-09T03:54:23.551Z,26.30
2024-04-09T03:55:24.065Z,26.36
2024-04-09T03:56:23.498Z,26.52
2024-04-09T03:57:23.503Z,26.32
2024-04-09T03:58:23.471Z,26.30
2024-04-09T03:59:23.476Z,26.30
2024-04-09T04:00:23.594Z,26.43
2024-04-09T04:01:23.541Z,26.43
2024-04-09T04:02:23.519Z,26.54
2024-04-09T04:03:23.638Z,26.52
2024-04-09T04:04:23.662Z,26.46
2024-04-09T04:05:23.532Z,26.46
2024-04-09T04:06:23.553Z,26.46
2024-04-09T04:07:23.524Z,26.35
2024-04-09T04:08:23.579Z,26.41
2024-04-09T04:09:23.563Z,26.39
2024-04-09T04:10:23.549Z,26.50
2024-04-09T04:11:23.627Z,26.70
2024-04-09T04:12:23.645Z,26.79
2024-04-09T04:13:23.527Z,26.68
2024-04-09T04:14:23.536Z,26.66
2024-04-09T04:15:23.589Z,26.49
2024-04-09T04:16:23.556Z,26.55
2024-04-09T04:17:23.620Z,26.57
2024-04-09T04:18:23.617Z,26.80
2024-04-09T04:19:23.551Z,26.78
2024-04-09T04:20:23.595Z,26.61
2024-04-09T04:21:23.721Z,26.55
2024-04-09T04:22:23.800Z,26.52
2024-04-09T04:23:23.903Z,26.52
2024-04-09T04:24:24.054Z,26.62
2024-04-09T04:25:24.104Z,26.49
2024-04-09T04:26:24.196Z,26.50
2024-04-09T04:27:24.305Z,26.48
2024-04-09T04:28:24.372Z,26.42
2024-04-09T04:29:24.437Z,26.40
2024-04-09T04:30:24.599Z,26.33
2024-04-09T04:31:24.653Z,26.25
2024-04-09T04:32:32.247Z,26.33
2024-04-09T04:33:32.386Z,26.37
2024-04-09T04:34:32.290Z,26.33
2024-04-09T04:35:32.315Z,26.37
2024-04-09T04:36:32.488Z,26.40
2024-04-09T04:37:32.507Z,26.32
2024-04-09T04:38:32.583Z,26.23
2024-04-09T04:39:32.692Z,26.30
2024-04-09T04:40:32.801Z,26.57
2024-04-09T04:41:32.890Z,26.57
2024-04-09T04:42:33.066Z,26.40
2024-04-09T04:43:33.096Z,26.37
2024-04-09T04:44:33.181Z,26.40
2024-04-09T04:45:33.316Z,26.36
2024-04-09T04:46:33.379Z,26.54
2024-04-09T04:47:33.598Z,26.82
2024-04-09T04:48:33.650Z,27.01
2024-04-09T04:49:33.822Z,27.89
2024-04-09T04:50:33.745Z,28.12
2024-04-09T04:51:33.850Z,28.45
2024-04-09T04:52:33.873Z,28.83
2024-04-09T04:53:34.017Z,29.60
2024-04-09T04:54:34.163Z,30.06
2024-04-09T04:55:34.160Z,30.32
2024-04-09T04:56:34.255Z,30.40
2024-04-09T04:57:34.375Z,30.70
2024-04-09T04:58:34.457Z,30.89
2024-04-09T04:59:34.527Z,31.03
2024-04-09T05:00:34.633Z,31.13
2024-04-09T05:01:34.738Z,31.27
2024-04-09T05:02:34.852Z,31.42
2024-04-09T05:03:35.026Z,31.57
2024-04-09T05:04:35.186Z,31.00
2024-04-09T05:05:35.121Z,31.27
2024-04-09T05:06:35.334Z,31.35
2024-04-09T05:07:35.374Z,31.32
2024-04-09T05:08:35.465Z,31.45
2024-04-09T05:09:35.680Z,31.44
2024-04-09T05:10:35.686Z,31.81
2024-04-09T05:11:35.802Z,31.92
2024-04-09T05:12:35.929Z,31.92
2024-04-09T05:13:35.997Z,32.13
2024-04-09T05:14:36.046Z,31.90
2024-04-09T05:15:36.221Z,32.24
2024-04-09T05:16:36.265Z,32.62
2024-04-09T05:17:36.412Z,32.61
2024-04-09T05:18:36.702Z,32.78
2024-04-09T05:19:36.668Z,32.87
2024-04-09T05:20:36.691Z,32.84
2024-04-09T05:21:36.850Z,32.78
2024-04-09T05:22:36.957Z,32.85
2024-04-09T05:23:37.011Z,32.69
2024-04-09T05:24:37.205Z,32.57
2024-04-09T05:25:37.231Z,32.82
2024-04-09T05:26:37.348Z,32.89
2024-04-09T05:27:37.479Z,32.88
2024-04-09T05:28:37.607Z,32.76
2024-04-09T05:29:37.690Z,32.84
2024-04-09T05:30:37.782Z,32.88
2024-04-09T05:31:37.871Z,33.06
2024-04-09T05:32:38.167Z,33.04
2024-04-09T05:33:38.167Z,33.12
2024-04-09T05:34:38.188Z,33.22
2024-04-09T05:35:38.288Z,32.89
2024-04-09T05:36:38.440Z,33.19
2024-04-09T05:37:38.519Z,33.08
2024-04-09T05:38:38.776Z,33.22
2024-04-09T05:39:38.768Z,33.33
2024-04-09T05:40:38.767Z,33.68
2024-04-09T05:41:38.865Z,33.63
2024-04-09T05:42:39.096Z,33.26
2024-04-09T05:43:39.095Z,33.04
2024-04-09T05:44:39.144Z,32.88
2024-04-09T05:45:39.270Z,33.07
2024-04-09T05:46:39.335Z,33.40
2024-04-09T05:47:39.485Z,33.51
2024-04-09T05:48:39.727Z,33.56
2024-04-09T05:49:39.641Z,32.66
2024-04-09T05:50:39.688Z,33.41
2024-04-09T05:51:39.897Z,33.44
2024-04-09T05:52:39.896Z,33.65
2024-04-09T05:53:39.992Z,32.59
2024-04-09T05:54:40.179Z,30.93
2024-04-09T05:55:40.164Z,29.80
2024-04-09T05:56:40.206Z,31.85
2024-04-09T05:57:40.454Z,32.49
2024-04-09T05:58:40.376Z,32.62
2024-04-09T05:59:40.467Z,31.92
2024-04-09T06:00:40.652Z,32.24
2024-04-09T06:01:40.773Z,32.63
2024-04-09T06:02:40.754Z,33.47
2024-04-09T06:03:40.918Z,33.29
2024-04-09T06:04:40.976Z,33.28
2024-04-09T06:05:41.077Z,33.52
2024-04-09T06:06:41.200Z,33.48
2024-04-09T06:07:41.274Z,33.25
2024-04-09T06:08:41.388Z,33.43
2024-04-09T06:09:41.685Z,31.80
2024-04-09T06:10:42.127Z,31.81
2024-04-09T06:11:41.622Z,31.34
2024-04-09T06:12:41.776Z,32.89
2024-04-09T06:13:41.674Z,32.90
2024-04-09T06:14:41.706Z,32.64
2024-04-09T06:15:41.824Z,33.42
2024-04-09T06:16:41.772Z,34.39
2024-04-09T06:17:41.967Z,34.50
2024-04-09T06:18:42.028Z,34.02
2024-04-09T06:19:42.036Z,33.46
2024-04-09T06:20:41.946Z,33.73
2024-04-09T06:21:41.987Z,33.56
2024-04-09T06:22:42.062Z,32.60
2024-04-09T06:23:42.197Z,33.52
2024-04-09T06:24:42.452Z,33.22
2024-04-09T06:25:42.347Z,34.12
2024-04-09T06:26:42.463Z,34.36
2024-04-09T06:27:42.594Z,33.71
2024-04-09T06:28:42.685Z,35.16
2024-04-09T06:29:42.731Z,35.05
2024-04-09T06:30:42.911Z,34.39
2024-04-09T06:31:42.966Z,33.71
2024-04-09T06:32:43.226Z,34.87
2024-04-09T06:33:43.261Z,35.05
2024-04-09T06:34:43.262Z,34.64
2024-04-09T06:35:43.379Z,34.40
2024-04-09T06:36:43.531Z,34.87
2024-04-09T06:37:43.619Z,34.18
2024-04-09T06:38:43.692Z,34.27
2024-04-09T06:39:43.950Z,34.81
2024-04-09T06:40:43.913Z,33.71
2024-04-09T06:41:44.024Z,34.54
2024-04-09T06:42:44.268Z,35.12
2024-04-09T06:43:44.216Z,35.63
2024-04-09T06:44:44.338Z,34.50
2024-04-09T06:45:44.489Z,35.70
2024-04-09T06:46:44.586Z,35.84
2024-04-09T06:47:44.766Z,33.36
2024-04-09T06:48:44.893Z,33.77
2024-04-09T06:49:45.131Z,34.46
2024-04-09T06:50:44.959Z,34.39
2024-04-09T06:51:45.105Z,34.26
2024-04-09T06:52:45.243Z,34.30
2024-04-09T06:53:45.336Z,33.87
2024-04-09T06:54:45.547Z,34.06
2024-04-09T06:55:45.528Z,34.04
2024-04-09T06:56:45.623Z,33.91
2024-04-09T06:57:45.823Z,33.85
2024-04-09T06:58:45.871Z,34.32
2024-04-09T06:59:45.935Z,34.46
2024-04-09T07:00:46.196Z,34.14
2024-04-09T07:01:46.372Z,33.51
2024-04-09T07:02:46.324Z,33.07
2024-04-09T07:03:46.491Z,34.58
2024-04-09T07:04:46.483Z,34.62
2024-04-09T07:05:46.595Z,35.02
2024-04-09T07:06:46.747Z,35.35
2024-04-09T07:07:46.788Z,35.17
2024-04-09T07:08:46.887Z,34.48
2024-04-09T07:09:47.020Z,34.35
2024-04-09T07:10:47.059Z,34.89
2024-04-09T07:11:47.283Z,35.32
2024-04-09T07:12:47.304Z,35.12
2024-04-09T07:13:47.424Z,35.13
2024-04-09T07:14:47.427Z,34.58
2024-04-09T07:15:47.612Z,35.19
2024-04-09T07:16:47.866Z,34.83
2024-04-09T07:17:47.817Z,35.15
2024-04-09T07:18:47.923Z,35.33
2024-04-09T07:19:47.942Z,35.03
2024-04-09T07:20:48.003Z,35.44
2024-04-09T07:21:48.165Z,35.64
2024-04-09T07:22:48.223Z,34.94
2024-04-09T07:23:48.338Z,35.27
2024-04-09T07:24:48.462Z,34.97
2024-04-09T07:25:48.493Z,34.74
2024-04-09T07:26:48.611Z,34.87
2024-04-09T07:27:48.673Z,34.80
2024-04-09T07:28:48.814Z,34.72
2024-04-09T07:29:48.886Z,35.06
2024-04-09T07:30:49.055Z,34.65
2024-04-09T07:31:49.091Z,34.29
2024-04-09T07:32:49.242Z,34.74
2024-04-09T07:33:49.271Z,35.22
2024-04-09T07:34:49.357Z,35.13
2024-04-09T07:35:49.469Z,35.82
2024-04-09T07:36:49.647Z,35.93
2024-04-09T07:37:49.642Z,35.65
2024-04-09T07:38:49.770Z,36.18
2024-04-09T07:39:49.896Z,36.36
2024-04-09T07:40:49.946Z,35.95
2024-04-09T07:41:50.087Z,35.51
2024-04-09T07:42:50.249Z,35.35
2024-04-09T07:43:50.280Z,34.65
2024-04-09T07:44:50.355Z,33.76
2024-04-09T07:45:50.488Z,34.80
2024-04-09T07:46:50.579Z,35.49
2024-04-09T07:47:50.890Z,35.83
2024-04-09T07:48:51.117Z,36.05
2024-04-09T07:49:52.363Z,36.26
2024-04-09T07:50:50.879Z,36.47
2024-04-09T07:51:50.961Z,36.67
2024-04-09T07:52:50.929Z,36.78
2024-04-09T07:53:50.967Z,36.99
2024-04-09T07:54:51.053Z,37.12
2024-04-09T07:55:51.018Z,36.69
2024-04-09T07:56:51.056Z,37.11
2024-04-09T07:57:51.093Z,37.48
2024-04-09T07:58:51.232Z,37.70
2024-04-09T07:59:51.339Z,37.67
2024-04-09T08:00:51.501Z,37.84
2024-04-09T08:01:51.519Z,37.81
2024-04-09T08:02:51.625Z,37.92
2024-04-09T08:03:51.886Z,37.92
2024-04-09T08:04:52.211Z,38.05
2024-04-09T08:05:51.819Z,38.03
2024-04-09T08:06:51.973Z,38.00
2024-04-09T08:07:51.982Z,37.91
2024-04-09T08:08:52.096Z,37.86
2024-04-09T08:09:52.020Z,37.88
2024-04-09T08:10:52.120Z,38.04
2024-04-09T08:11:51.997Z,38.29
2024-04-09T08:12:52.054Z,38.38
2024-04-09T08:13:52.024Z,38.47
2024-04-09T08:14:52.043Z,38.70
2024-04-09T08:15:52.120Z,38.77
2024-04-09T08:16:52.131Z,38.86
2024-04-09T08:17:52.329Z,38.78
2024-04-09T08:18:52.610Z,38.86
2024-04-09T08:19:52.499Z,38.83
2024-04-09T08:20:52.510Z,38.95
2024-04-09T08:21:52.661Z,38.92
2024-04-09T08:22:52.696Z,39.03
2024-04-09T08:23:52.796Z,39.12
2024-04-09T08:24:52.910Z,39.07
2024-04-09T08:25:53.044Z,39.04
2024-04-09T08:26:53.039Z,39.01
2024-04-09T08:27:53.226Z,38.90
2024-04-09T08:28:53.254Z,38.84
2024-04-09T08:29:53.318Z,38.84
2024-04-09T08:30:53.482Z,38.89
2024-04-09T08:31:53.525Z,38.99
2024-04-09T08:32:53.791Z,38.99
2024-04-09T08:33:53.788Z,39.03
2024-04-09T08:34:53.874Z,38.96
2024-04-09T08:35:53.871Z,38.87
2024-04-09T08:36:54.161Z,37.94
2024-04-09T08:37:54.184Z,37.86
2024-04-09T08:38:54.207Z,37.64
2024-04-09T08:39:54.387Z,37.66
2024-04-09T08:40:54.424Z,37.51
2024-04-09T08:41:54.505Z,35.37
2024-04-09T08:42:57.845Z,34.26
2024-04-09T08:43:54.589Z,34.77
2024-04-09T08:44:54.586Z,35.28
2024-04-09T08:45:54.654Z,35.80
2024-04-09T08:46:54.624Z,35.94
2024-04-09T08:47:54.676Z,35.99
2024-04-09T08:48:54.783Z,35.24
2024-04-09T08:49:57.666Z,35.57
2024-04-09T08:50:54.767Z,34.78
2024-04-09T08:51:54.816Z,36.27
2024-04-09T08:52:54.747Z,36.33
2024-04-09T08:53:54.632Z,36.43
2024-04-09T08:54:54.697Z,36.59
2024-04-09T08:55:54.678Z,36.87
2024-04-09T08:56:54.651Z,36.88
2024-04-09T08:57:54.647Z,37.27
2024-04-09T08:58:54.672Z,37.36
2024-04-09T08:59:54.660Z,37.43
2024-04-09T09:00:54.923Z,37.43
2024-04-09T09:01:54.667Z,37.77
2024-04-09T09:02:54.726Z,37.66
2024-04-09T09:03:54.755Z,37.83
2024-04-09T09:04:54.691Z,37.39
2024-04-09T09:05:54.656Z,37.30
2024-04-09T09:06:54.660Z,37.75
2024-04-09T09:07:54.676Z,37.65
2024-04-09T09:08:54.683Z,37.78
2024-04-09T09:09:54.750Z,37.76
2024-04-09T09:10:54.847Z,37.92
2024-04-09T09:11:54.926Z,37.92
2024-04-09T09:12:54.992Z,37.87
2024-04-09T09:13:55.099Z,37.69
2024-04-09T09:14:55.190Z,37.61
2024-04-09T09:15:55.306Z,37.38
2024-04-09T09:16:55.467Z,37.41
2024-04-09T09:17:55.507Z,37.28
2024-04-09T09:18:55.617Z,37.25
2024-04-09T09:19:55.628Z,37.16
2024-04-09T09:20:55.717Z,36.90
2024-04-09T09:21:55.773Z,36.81
2024-04-09T09:22:56.272Z,36.50
2024-04-09T09:23:55.967Z,36.44
2024-04-09T09:24:56.048Z,36.43
2024-04-09T09:25:56.138Z,36.35
2024-04-09T09:26:56.236Z,36.25
2024-04-09T09:27:56.308Z,36.46
2024-04-09T09:28:56.405Z,36.57
2024-04-09T09:29:56.484Z,36.57
2024-04-09T09:30:56.582Z,36.39
2024-04-09T09:31:56.736Z,36.28
2024-04-09T09:32:56.771Z,36.34
2024-04-09T09:33:56.871Z,36.44
2024-04-09T09:34:56.869Z,36.61
2024-04-09T09:35:56.963Z,36.71
2024-04-09T09:36:57.062Z,36.69
2024-04-09T09:37:58.474Z,36.60
2024-04-09T09:38:57.197Z,36.54
2024-04-09T09:39:57.311Z,35.68
2024-04-09T09:40:57.322Z,34.88
2024-04-09T09:41:57.475Z,34.64
2024-04-09T09:42:57.515Z,33.57
2024-04-09T09:43:59.417Z,33.14
2024-04-09T09:44:57.583Z,33.47
2024-04-09T09:45:57.650Z,34.07
2024-04-09T09:46:57.652Z,34.55
2024-04-09T09:47:57.806Z,34.66
2024-04-09T09:48:57.703Z,34.64
2024-04-09T09:50:06.188Z,34.72
2024-04-09T09:50:58.592Z,34.30
2024-04-09T09:51:57.604Z,34.66
2024-04-09T09:52:57.607Z,34.38
2024-04-09T09:53:57.697Z,34.58
2024-04-09T09:55:00.691Z,34.42
2024-04-09T09:55:57.604Z,34.58
2024-04-09T09:56:57.610Z,34.39
2024-04-09T09:57:57.618Z,34.90
2024-04-09T09:58:57.626Z,34.86
2024-04-09T09:59:57.698Z,34.91
2024-04-09T10:00:57.744Z,34.77
2024-04-09T10:01:57.660Z,34.93
2024-04-09T10:02:57.679Z,34.97
2024-04-09T10:03:57.804Z,34.97
2024-04-09T10:04:57.695Z,35.17
2024-04-09T10:05:57.630Z,34.94
2024-04-09T10:06:58.242Z,34.70
2024-04-09T10:07:57.621Z,34.63
2024-04-09T10:08:57.668Z,34.14
2024-04-09T10:09:57.612Z,33.94
2024-04-09T10:10:57.650Z,34.20
2024-04-09T10:11:57.737Z,34.25
2024-04-09T10:12:57.707Z,34.42
2024-04-09T10:13:57.636Z,34.09
2024-04-09T10:14:57.645Z,34.53
2024-04-09T10:15:57.759Z,34.66
2024-04-09T10:16:57.655Z,34.74
2024-04-09T10:17:57.877Z,34.63
2024-04-09T10:18:57.752Z,34.39
2024-04-09T10:19:57.681Z,34.33
2024-04-09T10:20:57.678Z,34.50
2024-04-09T10:21:57.726Z,33.80
2024-04-09T10:22:57.688Z,34.02
2024-04-09T10:23:57.693Z,33.90
2024-04-09T10:24:57.654Z,34.20
2024-04-09T10:25:57.700Z,34.00
2024-04-09T10:26:57.695Z,34.08
2024-04-09T10:27:57.837Z,34.08
2024-04-09T10:28:57.936Z,33.86
2024-04-09T10:29:58.012Z,33.55
2024-04-09T10:30:58.126Z,33.46
2024-04-09T10:31:58.207Z,33.81
2024-04-09T10:32:58.565Z,33.31
2024-04-09T10:33:58.765Z,33.83
2024-04-09T10:34:58.591Z,33.99
2024-04-09T10:35:58.610Z,34.09
2024-04-09T10:36:58.756Z,33.96
2024-04-09T10:37:58.814Z,33.48
2024-04-09T10:38:58.926Z,33.10
2024-04-09T10:39:59.046Z,32.99
2024-04-09T10:40:59.107Z,32.97
2024-04-09T10:41:59.344Z,32.53
2024-04-09T10:42:59.296Z,32.86
2024-04-09T10:43:59.419Z,33.05
2024-04-09T10:44:59.617Z,33.26
2024-04-09T10:46:07.720Z,33.33
2024-04-09T10:47:00.632Z,33.37
2024-04-09T10:47:59.692Z,33.07
2024-04-09T10:48:59.712Z,33.28
2024-04-09T10:49:59.563Z,33.25
2024-04-09T10:50:59.618Z,33.44
2024-04-09T10:51:59.610Z,33.62
2024-04-09T10:52:59.601Z,32.67
2024-04-09T10:53:59.652Z,32.69
2024-04-09T10:54:59.636Z,33.51
2024-04-09T10:55:59.620Z,33.38
2024-04-09T10:56:59.736Z,33.50
2024-04-09T10:57:59.652Z,33.39
2024-04-09T10:58:59.721Z,32.55
2024-04-09T10:59:59.897Z,32.61
2024-04-09T11:01:00.121Z,33.37
2024-04-09T11:02:00.045Z,33.24
2024-04-09T11:03:00.282Z,33.11
2024-04-09T11:04:00.340Z,32.96
2024-04-09T11:05:00.499Z,31.95
2024-04-09T11:06:00.513Z,32.28
2024-04-09T11:07:00.464Z,31.78
2024-04-09T11:08:00.509Z,31.65
2024-04-09T11:09:00.834Z,31.83
2024-04-09T11:10:00.711Z,32.03
2024-04-09T11:11:00.751Z,32.22
2024-04-09T11:12:01.156Z,32.04
2024-04-09T11:13:00.796Z,32.13
2024-04-09T11:14:00.855Z,31.84
2024-04-09T11:16:05.211Z,31.62
2024-04-09T11:17:05.266Z,31.78
2024-04-09T11:18:05.445Z,31.63
2024-04-09T11:19:05.484Z,31.51
2024-04-09T11:20:05.370Z,32.55
2024-04-09T11:21:05.480Z,32.78
2024-04-09T11:22:05.505Z,32.95
2024-04-09T11:23:05.574Z,33.22
2024-04-09T11:24:05.792Z,33.11
2024-04-09T11:25:05.750Z,33.05
2024-04-09T11:26:05.848Z,33.01
2024-04-09T11:27:05.941Z,33.01
2024-04-09T11:28:05.977Z,33.08
2024-04-09T11:29:06.044Z,33.43
2024-04-09T11:30:06.166Z,33.54
2024-04-09T11:31:06.173Z,33.39
2024-04-09T11:32:06.264Z,33.32
2024-04-09T11:33:06.612Z,33.21
2024-04-09T11:34:06.684Z,33.29
2024-04-09T11:35:06.664Z,33.47
2024-04-09T11:36:13.716Z,33.63
2024-04-09T11:37:07.739Z,33.89
2024-04-09T11:38:06.672Z,34.12
2024-04-09T11:39:06.719Z,34.39
2024-04-09T11:40:06.702Z,34.65
2024-04-09T11:41:06.696Z,34.98
2024-04-09T11:42:06.763Z,35.14
2024-04-09T11:43:06.720Z,35.34
2024-04-09T11:44:06.729Z,35.57
2024-04-09T11:45:06.781Z,35.77
2024-04-09T11:46:06.703Z,35.97
2024-04-09T11:47:06.737Z,36.13
2024-04-09T11:48:06.825Z,36.23
2024-04-09T11:49:06.902Z,36.41
2024-04-09T11:50:06.948Z,36.82
2024-04-09T11:51:07.123Z,37.14
2024-04-09T11:52:07.155Z,37.40
2024-04-09T11:53:07.242Z,37.56
2024-04-09T11:54:07.405Z,37.88
2024-04-09T11:55:09.232Z,38.19
2024-04-09T11:56:07.441Z,38.38
2024-04-09T11:57:07.462Z,38.59
2024-04-09T11:58:07.443Z,38.78
2024-04-09T11:59:07.496Z,38.83
2024-04-09T12:00:07.557Z,38.88
2024-04-09T12:01:07.564Z,38.99
2024-04-09T12:02:07.483Z,39.04
2024-04-09T12:03:07.603Z,39.05
2024-04-09T12:04:07.693Z,39.14
2024-04-09T12:05:07.663Z,39.04
2024-04-09T12:06:07.607Z,39.15
2024-04-09T12:07:07.523Z,39.18
2024-04-09T12:08:07.573Z,39.26
2024-04-09T12:09:07.560Z,39.32
2024-04-09T12:10:07.497Z,39.43
2024-04-09T12:11:07.638Z,39.55
2024-04-09T12:12:07.518Z,39.65
2024-04-09T12:13:07.500Z,39.75
2024-04-09T12:14:07.505Z,39.79
2024-04-09T12:15:07.650Z,39.84
2024-04-09T12:16:07.519Z,39.87
2024-04-09T12:17:07.564Z,39.95
2024-04-09T12:18:07.853Z,39.70
2024-04-09T12:19:07.736Z,39.55
2024-04-09T12:20:07.591Z,39.48
2024-04-09T12:21:07.604Z,39.38
2024-04-09T12:22:07.597Z,39.28
2024-04-09T12:23:07.623Z,39.26
2024-04-09T12:24:07.631Z,39.11
2024-04-09T12:25:07.619Z,38.91
2024-04-09T12:26:07.583Z,38.98
2024-04-09T12:27:07.630Z,38.82
2024-04-09T12:28:07.604Z,38.60
2024-04-09T12:29:07.567Z,38.56
2024-04-09T12:30:07.643Z,38.57
2024-04-09T12:31:07.565Z,38.41
2024-04-09T12:32:07.623Z,38.44
2024-04-09T12:33:07.789Z,38.39
2024-04-09T12:34:07.827Z,38.28
2024-04-09T12:35:07.901Z,38.18
2024-04-09T12:36:07.868Z,38.15
2024-04-09T12:37:07.902Z,38.01
2024-04-09T12:38:08.021Z,38.01
2024-04-09T12:39:08.121Z,38.12
2024-04-09T12:40:08.149Z,38.16
2024-04-09T12:41:08.225Z,38.25
2024-04-09T12:42:08.356Z,38.28
2024-04-09T12:43:08.381Z,38.00
2024-04-09T12:44:08.458Z,37.95
2024-04-09T12:45:08.577Z,38.00
2024-04-09T12:46:08.595Z,37.93
2024-04-09T12:47:08.741Z,37.95
2024-04-09T12:48:08.822Z,37.96
2024-04-09T12:49:17.543Z,37.81
2024-04-09T12:50:09.998Z,37.71
2024-04-09T12:51:08.840Z,37.73
2024-04-09T12:52:08.887Z,37.49
2024-04-09T12:53:08.834Z,37.51
2024-04-09T12:54:08.877Z,37.67
2024-04-09T12:55:08.876Z,37.74